Time;durP1;ratioP1;P1;durP2;ratioP2;P2;SDS_P1;SDS_P2;PMS_P1;PMS_P2;Temp;Humidity;BMP_temperature;BMP_pressure;BME280_temperature;BME280_humidity;BME280_pressure;Samples;Min_cycle;Max_cycle;Signal;HPM_P1;HPM_P2
2022/03/07 00:02:08;;;;;;;12.85;8.85;;;-0.70;99.10;;;;;;5003614;28;20049;-32
2022/03/07 00:04:34;;;;;;;14.80;9.60;;;-0.70;99.20;;;;;;5005666;28;20109;-32
2022/03/07 00:06:59;;;;;;;13.32;8.43;;;-0.70;99.20;;;;;;5003274;28;20048;-32
2022/03/07 00:09:25;;;;;;;11.90;8.63;;;-0.70;99.00;;;;;;5005042;28;20034;-32
2022/03/07 00:11:51;;;;;;;15.38;8.35;;;-0.70;99.20;;;;;;5006565;28;20479;-32
2022/03/07 00:14:17;;;;;;;12.63;8.98;;;-0.70;99.60;;;;;;5004617;28;20030;-32
2022/03/07 00:16:42;;;;;;;11.18;7.80;;;-0.70;99.50;;;;;;5003390;28;20061;-32
2022/03/07 00:19:08;;;;;;;16.48;8.77;;;-0.70;99.60;;;;;;5004113;28;20029;-32
2022/03/07 00:21:34;;;;;;;12.70;8.02;;;-0.70;99.80;;;;;;5004932;28;20030;-32
2022/03/07 00:24:00;;;;;;;15.18;9.82;;;-0.70;99.90;;;;;;5005555;28;20065;-32
2022/03/07 00:26:26;;;;;;;14.85;9.85;;;-0.70;99.90;;;;;;5005137;28;20061;-32
2022/03/07 00:28:52;;;;;;;13.50;8.93;;;-0.70;99.90;;;;;;5003304;28;20154;-32
2022/03/07 00:31:20;;;;;;;18.27;10.52;;;-0.80;99.90;;;;;;5003619;28;20458;-32
2022/03/07 00:33:45;;;;;;;14.75;10.30;;;-0.70;99.90;;;;;;5004765;28;20107;-32
2022/03/07 00:36:11;;;;;;;16.33;9.30;;;-0.70;99.90;;;;;;5003845;28;20109;-32
2022/03/07 00:38:36;;;;;;;13.43;9.85;;;-0.70;99.90;;;;;;4998570;28;20081;-32
2022/03/07 00:41:03;;;;;;;11.70;7.47;;;-0.80;99.90;;;;;;5003277;28;20685;-32
2022/03/07 00:43:29;;;;;;;12.73;8.82;;;-0.80;99.90;;;;;;5002004;28;20034;-32
2022/03/07 00:45:55;;;;;;;13.02;7.35;;;-0.80;99.90;;;;;;5008105;28;20038;-32
2022/03/07 00:48:20;;;;;;;14.63;9.88;;;-0.70;99.90;;;;;;5002967;28;20041;-32
2022/03/07 00:50:48;;;;;;;15.40;9.35;;;-0.80;99.90;;;;;;5003925;28;20040;-32
2022/03/07 00:53:17;;;;;;;14.18;7.90;;;-0.80;99.90;;;;;;5005257;28;20029;-32
2022/03/07 00:55:43;;;;;;;12.38;9.00;;;-0.80;99.90;;;;;;5003850;28;20025;-32
2022/03/07 00:58:09;;;;;;;15.93;8.63;;;-0.80;99.90;;;;;;5001609;28;20022;-32
2022/03/07 01:00:36;;;;;;;16.92;10.50;;;-0.90;99.90;;;;;;5001001;28;20049;-32
2022/03/07 01:03:06;;;;;;;11.55;7.97;;;-1.00;99.90;;;;;;5004327;28;20117;-32
2022/03/07 01:05:32;;;;;;;14.27;9.27;;;-1.00;99.90;;;;;;5003921;28;20029;-32
2022/03/07 01:07:58;;;;;;;11.18;8.18;;;-1.00;99.90;;;;;;5004354;28;20030;-32
2022/03/07 01:10:24;;;;;;;14.35;8.20;;;-1.10;99.90;;;;;;5004862;28;20028;-32
2022/03/07 01:12:49;;;;;;;11.18;7.32;;;-1.10;99.90;;;;;;5005838;28;20080;-32
2022/03/07 01:15:15;;;;;;;15.40;8.75;;;-1.10;99.90;;;;;;5002839;28;20034;-32
2022/03/07 01:17:41;;;;;;;12.15;8.65;;;-1.10;99.90;;;;;;5002643;28;20080;-32
2022/03/07 01:20:08;;;;;;;11.48;8.13;;;-1.10;99.90;;;;;;5004246;28;20049;-32
2022/03/07 01:22:34;;;;;;;12.40;8.95;;;-1.10;99.90;;;;;;5005442;28;20057;-32
2022/03/07 01:25:02;;;;;;;13.80;9.25;;;-1.10;99.90;;;;;;4983156;28;20031;-32
2022/03/07 01:27:27;;;;;;;16.50;9.13;;;-1.10;99.90;;;;;;5003829;28;20061;-32
2022/03/07 01:29:53;;;;;;;15.23;10.10;;;-1.10;99.90;;;;;;4999923;28;20148;-32
2022/03/07 01:32:18;;;;;;;12.85;8.80;;;-1.10;99.90;;;;;;5000309;28;20046;-32
2022/03/07 01:34:44;;;;;;;12.27;9.15;;;-1.10;99.90;;;;;;5001737;28;20049;-32
2022/03/07 01:37:10;;;;;;;12.30;8.23;;;-1.20;99.90;;;;;;5006325;28;20025;-32
2022/03/07 01:39:35;;;;;;;14.35;9.25;;;-1.20;99.90;;;;;;5002411;28;20513;-33
2022/03/07 01:42:02;;;;;;;16.67;10.63;;;-1.20;99.90;;;;;;5003717;28;20124;-32
2022/03/07 01:44:28;;;;;;;17.35;10.60;;;-1.20;99.90;;;;;;5003399;28;20113;-32
2022/03/07 01:46:55;;;;;;;16.42;9.43;;;-1.20;99.90;;;;;;5003014;28;20041;-32
2022/03/07 01:49:21;;;;;;;13.95;9.10;;;-1.20;99.90;;;;;;5005951;28;20042;-32
2022/03/07 01:51:48;;;;;;;15.77;9.43;;;-1.20;99.90;;;;;;5003128;28;20041;-32
2022/03/07 01:54:15;;;;;;;12.60;8.63;;;-1.30;99.90;;;;;;5004543;28;20167;-32
2022/03/07 01:56:45;;;;;;;11.82;8.15;;;-1.20;99.90;;;;;;5001888;28;20042;-32
2022/03/07 01:59:12;;;;;;;13.45;9.05;;;-1.30;99.90;;;;;;5000485;28;20030;-32
2022/03/07 02:01:38;;;;;;;15.98;9.38;;;-1.30;99.90;;;;;;5001282;28;20042;-32
2022/03/07 02:04:05;;;;;;;12.32;7.25;;;-1.30;99.90;;;;;;5003443;28;20037;-32
2022/03/07 02:06:30;;;;;;;11.68;8.20;;;-1.30;99.90;;;;;;5005008;28;20025;-32
2022/03/07 02:08:57;;;;;;;16.30;10.73;;;-1.30;99.90;;;;;;5002257;28;20398;-32
2022/03/07 02:11:24;;;;;;;14.90;9.50;;;-1.30;99.90;;;;;;5003043;28;21310;-32
2022/03/07 02:13:50;;;;;;;14.50;8.02;;;-1.30;99.90;;;;;;5002147;28;20401;-32
2022/03/07 02:16:17;;;;;;;14.57;8.35;;;-1.30;99.90;;;;;;5005971;28;20552;-32
2022/03/07 02:18:51;;;;;;;15.85;8.27;;;-1.30;99.90;;;;;;5002461;28;20486;-32
2022/03/07 02:21:18;;;;;;;13.05;6.88;;;-1.30;99.90;;;;;;4999846;28;20030;-32
2022/03/07 02:23:45;;;;;;;13.32;8.25;;;-1.30;99.90;;;;;;5005017;28;20026;-32
2022/03/07 02:26:12;;;;;;;13.02;8.13;;;-1.40;99.90;;;;;;5003340;28;20088;-32
2022/03/07 02:28:42;;;;;;;12.20;8.35;;;-1.40;99.90;;;;;;5001231;28;20136;-32
2022/03/07 02:31:09;;;;;;;15.82;8.13;;;-1.40;99.90;;;;;;4999491;28;20040;-32
2022/03/07 02:33:35;;;;;;;15.00;8.40;;;-1.30;99.90;;;;;;5000656;28;20072;-32
2022/03/07 02:36:01;;;;;;;12.10;7.78;;;-1.40;99.90;;;;;;5005234;28;20042;-32
2022/03/07 02:38:27;;;;;;;14.95;9.07;;;-1.40;99.90;;;;;;5003195;28;20443;-32
2022/03/07 02:40:52;;;;;;;16.55;10.68;;;-1.40;99.90;;;;;;5001147;28;20028;-32
2022/03/07 02:43:18;;;;;;;18.95;9.73;;;-1.40;99.90;;;;;;5001255;28;20053;-32
2022/03/07 02:45:45;;;;;;;16.30;9.38;;;-1.30;99.90;;;;;;5004944;28;20136;-32
2022/03/07 02:48:11;;;;;;;13.57;8.73;;;-1.30;99.90;;;;;;5003737;28;20554;-32
2022/03/07 02:50:37;;;;;;;11.65;8.88;;;-1.30;99.90;;;;;;5004264;28;20033;-32
2022/03/07 02:53:03;;;;;;;12.73;8.43;;;-1.40;99.90;;;;;;5000799;28;20026;-32
2022/03/07 02:55:31;;;;;;;14.77;8.80;;;-1.30;99.90;;;;;;5004835;28;20030;-32
2022/03/07 02:57:56;;;;;;;12.88;8.20;;;-1.40;99.90;;;;;;5004425;28;20049;-32
2022/03/07 03:00:23;;;;;;;10.65;7.25;;;-1.40;99.90;;;;;;4998775;28;20742;-32
2022/03/07 03:02:48;;;;;;;12.85;7.72;;;-1.40;99.90;;;;;;5002501;28;20080;-32
2022/03/07 03:05:14;;;;;;;10.85;7.45;;;-1.40;99.90;;;;;;5002157;28;20034;-32
2022/03/07 03:07:40;;;;;;;11.32;9.05;;;-1.40;99.90;;;;;;5005496;28;20030;-32
2022/03/07 03:10:07;;;;;;;16.60;9.02;;;-1.40;99.90;;;;;;4999887;28;20022;-33
2022/03/07 03:12:32;;;;;;;15.27;8.57;;;-1.40;99.90;;;;;;5003605;28;20033;-32
2022/03/07 03:14:58;;;;;;;14.60;10.02;;;-1.40;99.90;;;;;;5002055;28;20372;-32
2022/03/07 03:17:24;;;;;;;16.00;9.68;;;-1.40;99.90;;;;;;5002156;28;20499;-32
2022/03/07 03:19:50;;;;;;;13.02;8.85;;;-1.40;99.90;;;;;;5003112;28;20030;-32
2022/03/07 03:22:16;;;;;;;14.40;8.73;;;-1.50;99.90;;;;;;5001230;28;20037;-32
2022/03/07 03:24:41;;;;;;;14.85;9.18;;;-1.50;99.90;;;;;;5003290;28;20104;-32
2022/03/07 03:27:07;;;;;;;14.85;8.23;;;-1.50;99.90;;;;;;5001674;28;20044;-32
2022/03/07 03:29:33;;;;;;;12.55;8.40;;;-1.50;99.90;;;;;;5002905;28;20390;-32
2022/03/07 03:31:59;;;;;;;14.02;9.05;;;-1.50;99.90;;;;;;5005900;28;20476;-32
2022/03/07 03:34:25;;;;;;;10.25;7.82;;;-1.50;99.90;;;;;;5006910;28;20032;-32
2022/03/07 03:36:51;;;;;;;12.30;7.90;;;-1.50;99.90;;;;;;5004411;28;20399;-32
2022/03/07 03:39:17;;;;;;;13.40;7.10;;;-1.50;99.90;;;;;;5005382;28;20144;-32
2022/03/07 03:41:43;;;;;;;13.00;7.78;;;-1.60;99.90;;;;;;5005380;28;20123;-32
2022/03/07 03:44:08;;;;;;;14.93;9.07;;;-1.50;99.90;;;;;;5007390;28;20827;-32
2022/03/07 03:46:34;;;;;;;12.27;8.25;;;-1.50;99.90;;;;;;5008443;28;20056;-32
2022/03/07 03:49:00;;;;;;;15.43;9.20;;;-1.60;99.90;;;;;;5008636;28;20036;-32
2022/03/07 03:51:26;;;;;;;13.20;8.27;;;-1.60;99.90;;;;;;5004200;28;20038;-32
2022/03/07 03:53:51;;;;;;;12.02;8.55;;;-1.60;99.90;;;;;;5005227;28;20030;-32
2022/03/07 03:56:17;;;;;;;12.60;8.43;;;-1.60;99.90;;;;;;5004867;28;20018;-32
2022/03/07 03:58:43;;;;;;;10.23;7.65;;;-1.60;99.90;;;;;;5006721;28;20171;-32
2022/03/07 04:01:08;;;;;;;10.90;7.75;;;-1.60;99.90;;;;;;5004812;28;20968;-32
2022/03/07 04:03:34;;;;;;;12.48;7.63;;;-1.60;99.90;;;;;;5004407;28;20506;-32
2022/03/07 04:06:00;;;;;;;12.88;8.25;;;-1.60;99.90;;;;;;5005978;28;20034;-32
2022/03/07 04:08:28;;;;;;;11.90;7.97;;;-1.60;99.90;;;;;;5008213;28;20116;-32
2022/03/07 04:10:54;;;;;;;9.18;6.43;;;-1.60;99.90;;;;;;5003477;28;20030;-32
2022/03/07 04:13:19;;;;;;;9.82;6.75;;;-1.60;99.90;;;;;;5005182;28;20095;-32
2022/03/07 04:15:45;;;;;;;8.68;6.45;;;-1.60;99.90;;;;;;5007407;28;20030;-32
2022/03/07 04:18:10;;;;;;;12.65;7.60;;;-1.60;99.90;;;;;;5007317;28;20116;-32
2022/03/07 04:20:36;;;;;;;13.70;8.65;;;-1.60;99.90;;;;;;5002941;28;20425;-32
2022/03/07 04:23:01;;;;;;;13.77;8.88;;;-1.60;99.90;;;;;;5002773;28;20022;-32
2022/03/07 04:25:27;;;;;;;13.00;9.15;;;-1.60;99.90;;;;;;5006990;28;20034;-32
2022/03/07 04:27:53;;;;;;;12.48;7.97;;;-1.60;99.90;;;;;;5004981;28;20044;-32
2022/03/07 04:30:19;;;;;;;10.85;7.38;;;-1.60;99.90;;;;;;4999051;28;20095;-32
2022/03/07 04:32:45;;;;;;;10.57;8.35;;;-1.60;99.90;;;;;;4998096;28;20578;-32
2022/03/07 04:35:11;;;;;;;13.52;7.55;;;-1.60;99.90;;;;;;5002566;28;20026;-32
2022/03/07 04:37:40;;;;;;;13.57;7.68;;;-1.70;99.90;;;;;;5003749;28;20033;-32
2022/03/07 04:40:10;;;;;;;10.20;6.60;;;-1.70;99.90;;;;;;5005263;28;20034;-32
2022/03/07 04:42:36;;;;;;;7.82;6.40;;;-1.70;99.90;;;;;;5000443;28;20065;-32
2022/03/07 04:45:02;;;;;;;11.35;7.43;;;-1.80;99.90;;;;;;5002932;28;20069;-32
2022/03/07 04:47:27;;;;;;;11.18;6.75;;;-1.80;99.90;;;;;;5001619;28;20034;-32
2022/03/07 04:49:53;;;;;;;9.07;6.65;;;-1.80;99.90;;;;;;5005186;28;20376;-32
2022/03/07 04:52:19;;;;;;;13.30;7.28;;;-1.80;99.90;;;;;;5002265;28;20030;-32
2022/03/07 04:54:44;;;;;;;12.45;7.25;;;-1.80;99.90;;;;;;5003815;28;20026;-32
2022/03/07 04:57:10;;;;;;;9.90;7.32;;;-1.80;99.90;;;;;;5005683;28;20030;-32
2022/03/07 04:59:35;;;;;;;11.93;7.13;;;-1.80;99.90;;;;;;5003196;28;20112;-32
2022/03/07 05:02:01;;;;;;;11.13;6.97;;;-1.90;99.90;;;;;;5001945;28;20049;-32
2022/03/07 05:04:26;;;;;;;15.75;8.60;;;-1.80;99.90;;;;;;5000869;28;20670;-32
2022/03/07 05:06:52;;;;;;;10.30;7.13;;;-1.90;99.90;;;;;;5002413;28;20114;-32
2022/03/07 05:09:18;;;;;;;13.32;8.30;;;-1.90;99.90;;;;;;5004160;28;20364;-32
2022/03/07 05:11:43;;;;;;;10.63;7.85;;;-1.90;99.90;;;;;;5002175;28;20109;-32
2022/03/07 05:14:09;;;;;;;9.73;6.53;;;-1.90;99.90;;;;;;5004925;28;20487;-32
2022/03/07 05:16:34;;;;;;;12.32;7.75;;;-1.90;99.90;;;;;;5003205;28;20029;-32
2022/03/07 05:19:00;;;;;;;11.52;8.48;;;-1.90;99.90;;;;;;4999892;28;20037;-32
2022/03/07 05:21:26;;;;;;;9.50;6.05;;;-1.90;99.90;;;;;;5005619;28;20032;-32
2022/03/07 05:23:51;;;;;;;9.57;6.78;;;-1.90;99.90;;;;;;5003882;28;20030;-32
2022/03/07 05:26:17;;;;;;;8.88;6.57;;;-1.90;99.90;;;;;;5006049;28;20530;-32
2022/03/07 05:28:42;;;;;;;9.20;6.05;;;-1.90;99.90;;;;;;5004675;28;20076;-32
2022/03/07 05:31:12;;;;;;;9.00;6.20;;;-1.90;99.90;;;;;;4997459;28;20451;-32
2022/03/07 05:33:38;;;;;;;16.30;7.90;;;-1.90;99.90;;;;;;5003767;28;20099;-32
2022/03/07 05:36:05;;;;;;;9.88;6.00;;;-1.90;99.90;;;;;;5005208;28;20030;-32
2022/03/07 05:38:31;;;;;;;11.65;6.93;;;-1.90;99.90;;;;;;5004151;28;20026;-32
2022/03/07 05:40:57;;;;;;;8.30;5.95;;;-1.90;99.90;;;;;;5005265;28;20025;-32
2022/03/07 05:43:22;;;;;;;13.73;7.15;;;-2.00;99.90;;;;;;5000602;28;20391;-32
2022/03/07 05:45:48;;;;;;;8.75;6.40;;;-2.00;99.90;;;;;;5000021;28;20522;-32
2022/03/07 05:48:13;;;;;;;7.28;5.75;;;-2.00;99.90;;;;;;5000722;28;20040;-32
2022/03/07 05:50:41;;;;;;;8.82;5.78;;;-2.10;99.90;;;;;;5002536;28;20045;-32
2022/03/07 05:53:06;;;;;;;11.30;6.70;;;-2.00;99.90;;;;;;5004358;28;20655;-32
2022/03/07 05:55:32;;;;;;;9.70;6.40;;;-2.00;99.90;;;;;;5001366;28;20022;-32
2022/03/07 05:58:00;;;;;;;11.13;6.65;;;-2.00;99.90;;;;;;5001189;28;20038;-32
2022/03/07 06:00:27;;;;;;;9.82;7.13;;;-2.00;99.90;;;;;;5003223;28;20034;-32
2022/03/07 06:02:53;;;;;;;10.75;6.63;;;-2.00;99.90;;;;;;5001437;28;20026;-32
2022/03/07 06:05:20;;;;;;;8.32;6.10;;;-2.00;99.90;;;;;;5001470;28;20034;-32
2022/03/07 06:07:45;;;;;;;11.00;7.30;;;-2.00;99.90;;;;;;5006565;28;20041;-32
2022/03/07 06:10:11;;;;;;;9.13;6.45;;;-2.00;99.90;;;;;;5002609;28;20405;-32
2022/03/07 06:12:37;;;;;;;8.55;6.13;;;-1.90;99.90;;;;;;5004159;28;20033;-32
2022/03/07 06:15:04;;;;;;;10.45;6.45;;;-1.90;99.90;;;;;;5001689;28;20045;-32
2022/03/07 06:17:36;;;;;;;9.25;5.93;;;-1.90;99.90;;;;;;5002681;28;20042;-32
2022/03/07 06:20:02;;;;;;;5.88;4.45;;;-1.90;99.90;;;;;;5001243;28;20057;-32
2022/03/07 06:22:28;;;;;;;9.90;6.40;;;-1.90;99.90;;;;;;5001446;28;20037;-32
2022/03/07 06:24:54;;;;;;;6.68;5.05;;;-1.90;99.90;;;;;;5003218;28;20076;-32
2022/03/07 06:27:19;;;;;;;10.73;7.15;;;-1.90;99.90;;;;;;5005756;28;20578;-32
2022/03/07 06:29:45;;;;;;;6.10;5.40;;;-1.90;99.90;;;;;;4996367;28;20033;-32
2022/03/07 06:32:10;;;;;;;8.80;5.55;;;-1.80;99.90;;;;;;4999533;28;20053;-32
2022/03/07 06:34:36;;;;;;;9.32;5.82;;;-1.80;99.90;;;;;;5000841;28;20037;-32
2022/03/07 06:37:02;;;;;;;7.95;6.47;;;-1.80;99.90;;;;;;5001084;28;20033;-32
2022/03/07 06:39:28;;;;;;;11.52;6.55;;;-1.80;99.90;;;;;;5003188;28;20022;-32
2022/03/07 06:41:55;;;;;;;9.23;6.95;;;-1.80;99.90;;;;;;5002250;28;20026;-32
2022/03/07 06:44:21;;;;;;;11.02;6.88;;;-1.70;99.90;;;;;;5001528;28;20029;-32
2022/03/07 06:46:47;;;;;;;8.73;6.05;;;-1.70;99.90;;;;;;5000919;28;20500;-32
2022/03/07 06:49:12;;;;;;;11.85;6.80;;;-1.70;99.90;;;;;;5001510;28;20037;-32
2022/03/07 06:51:38;;;;;;;10.55;6.35;;;-1.70;99.70;;;;;;5004524;28;20045;-32
2022/03/07 06:54:04;;;;;;;11.32;7.45;;;-1.70;99.50;;;;;;5002495;28;20505;-32
2022/03/07 06:56:30;;;;;;;11.75;6.40;;;-1.60;99.40;;;;;;5001805;28;20471;-32
2022/03/07 06:58:56;;;;;;;11.25;6.38;;;-1.60;99.90;;;;;;4998073;28;20045;-33
2022/03/07 07:01:22;;;;;;;11.90;6.80;;;-1.60;99.90;;;;;;5002579;28;20037;-32
2022/03/07 07:03:48;;;;;;;9.30;6.70;;;-1.60;99.90;;;;;;4999947;28;20509;-32
2022/03/07 07:06:14;;;;;;;11.80;7.00;;;-1.50;99.20;;;;;;5002922;28;20021;-32
2022/03/07 07:08:39;;;;;;;8.93;6.07;;;-1.60;99.20;;;;;;5001541;28;20017;-32
2022/03/07 07:11:05;;;;;;;11.95;6.60;;;-1.60;99.40;;;;;;5001470;28;20060;-32
2022/03/07 07:13:31;;;;;;;10.73;6.57;;;-1.60;99.20;;;;;;4999534;28;20037;-32
2022/03/07 07:15:57;;;;;;;11.02;7.28;;;-1.60;98.70;;;;;;5001977;28;20414;-32
2022/03/07 07:18:25;;;;;;;10.18;7.07;;;-1.60;99.40;;;;;;4999968;28;20034;-32
2022/03/07 07:20:52;;;;;;;12.30;8.00;;;-1.50;99.80;;;;;;5000801;28;20026;-32
2022/03/07 07:23:19;;;;;;;9.77;7.35;;;-1.50;98.30;;;;;;4998502;28;20041;-32
2022/03/07 07:25:45;;;;;;;11.65;7.45;;;-1.50;98.80;;;;;;5000401;28;20112;-32
2022/03/07 07:28:12;;;;;;;7.85;6.03;;;-1.40;98.80;;;;;;5001679;28;20025;-32
2022/03/07 07:30:37;;;;;;;26.15;7.57;;;-1.40;99.30;;;;;;5001640;28;20062;-32
2022/03/07 07:33:03;;;;;;;13.30;7.25;;;-1.40;98.80;;;;;;4985823;28;20121;-32
2022/03/07 07:35:29;;;;;;;11.82;7.18;;;-1.30;99.90;;;;;;5003583;28;20434;-32
2022/03/07 07:37:54;;;;;;;11.65;8.13;;;-1.30;98.60;;;;;;5002597;28;20034;-32
2022/03/07 07:40:21;;;;;;;9.27;7.15;;;-1.30;98.40;;;;;;5004245;28;20061;-32
2022/03/07 07:42:46;;;;;;;12.23;8.18;;;-1.30;98.00;;;;;;5003603;28;20091;-32
2022/03/07 07:45:12;;;;;;;12.02;7.75;;;-1.20;98.70;;;;;;5003851;28;20033;-32
2022/03/07 07:47:38;;;;;;;9.00;6.85;;;-1.20;99.10;;;;;;5005272;28;20037;-32
2022/03/07 07:50:05;;;;;;;11.80;8.02;;;-1.20;99.50;;;;;;5002928;28;20642;-32
2022/03/07 07:52:30;;;;;;;11.32;7.03;;;-1.20;98.80;;;;;;5003798;28;20026;-32
2022/03/07 07:54:56;;;;;;;11.25;8.05;;;-1.20;99.20;;;;;;5003317;28;20394;-32
2022/03/07 07:57:23;;;;;;;13.57;7.90;;;-1.10;98.60;;;;;;5004975;28;20073;-32
2022/03/07 07:59:48;;;;;;;15.10;10.05;;;-1.10;97.90;;;;;;5004582;28;20054;-32
2022/03/07 08:02:14;;;;;;;13.88;8.00;;;-1.20;97.90;;;;;;5001793;28;20455;-32
2022/03/07 08:04:39;;;;;;;13.05;7.43;;;-1.10;99.30;;;;;;5001052;28;20553;-32
2022/03/07 08:07:05;;;;;;;12.93;8.43;;;-1.00;99.00;;;;;;5004147;28;20041;-32
2022/03/07 08:09:31;;;;;;;11.43;7.82;;;-0.90;98.70;;;;;;5004468;28;20026;-32
2022/03/07 08:11:56;;;;;;;14.02;8.90;;;-0.90;98.30;;;;;;5003584;28;20021;-32
2022/03/07 08:14:23;;;;;;;13.73;9.10;;;-1.00;99.00;;;;;;5002305;28;20563;-32
2022/03/07 08:16:49;;;;;;;16.90;11.00;;;-0.90;98.50;;;;;;5007284;28;20474;-32
2022/03/07 08:19:15;;;;;;;16.73;8.93;;;-0.90;99.10;;;;;;5007296;28;20037;-32
2022/03/07 08:21:41;;;;;;;17.42;10.43;;;-0.90;97.50;;;;;;5007118;28;20038;-32
2022/03/07 08:24:06;;;;;;;13.88;9.02;;;-0.90;97.70;;;;;;4988747;28;20041;-32
2022/03/07 08:26:33;;;;;;;14.57;10.02;;;-0.90;99.40;;;;;;5007349;28;20018;-32
2022/03/07 08:28:58;;;;;;;13.43;8.23;;;-0.80;98.20;;;;;;5004685;28;20035;-32
2022/03/07 08:31:24;;;;;;;17.98;10.05;;;-0.80;99.60;;;;;;5005732;28;20045;-32
2022/03/07 08:33:49;;;;;;;14.60;8.90;;;-0.70;97.60;;;;;;5005597;28;20438;-32
2022/03/07 08:36:15;;;;;;;13.18;8.55;;;-0.60;98.60;;;;;;5006674;28;20080;-33
2022/03/07 08:38:41;;;;;;;20.88;9.50;;;-0.50;97.70;;;;;;5007892;28;20115;-32
2022/03/07 08:41:07;;;;;;;12.00;8.68;;;-0.50;97.80;;;;;;5007897;28;20033;-33
2022/03/07 08:43:33;;;;;;;14.70;8.40;;;-0.50;97.50;;;;;;5006504;28;20069;-32
2022/03/07 08:45:59;;;;;;;14.82;9.95;;;-0.50;98.60;;;;;;5008353;28;20053;-32
2022/03/07 08:48:25;;;;;;;15.95;8.98;;;-0.40;98.00;;;;;;5006613;28;20029;-32
2022/03/07 08:50:53;;;;;;;15.90;8.82;;;-0.40;96.60;;;;;;5008412;28;20036;-32
2022/03/07 08:53:19;;;;;;;16.25;9.60;;;-0.30;99.40;;;;;;5004338;28;20372;-33
2022/03/07 08:55:45;;;;;;;17.05;8.48;;;-0.20;97.90;;;;;;5004999;28;20041;-32
2022/03/07 08:58:11;;;;;;;16.27;8.60;;;-0.10;97.40;;;;;;5005634;28;20034;-32
2022/03/07 09:00:36;;;;;;;15.85;9.68;;;-0.20;98.10;;;;;;5006508;28;20112;-33
2022/03/07 09:03:04;;;;;;;18.40;10.13;;;-0.20;96.90;;;;;;5006563;28;20042;-32
2022/03/07 09:05:30;;;;;;;14.95;10.25;;;-0.10;96.10;;;;;;5006459;28;20034;-32
2022/03/07 09:07:55;;;;;;;15.85;9.52;;;-0.20;95.90;;;;;;5007690;28;20127;-32
2022/03/07 09:10:21;;;;;;;17.42;9.70;;;-0.20;96.70;;;;;;5004137;28;20034;-31
2022/03/07 09:12:48;;;;;;;18.60;10.80;;;-0.10;97.70;;;;;;4990216;28;20727;-32
2022/03/07 09:15:14;;;;;;;12.85;9.13;;;-0.10;94.70;;;;;;5005538;28;20057;-32
2022/03/07 09:17:40;;;;;;;19.05;10.52;;;-0.10;96.50;;;;;;5006256;28;20469;-32
2022/03/07 09:20:08;;;;;;;20.33;11.05;;;0.00;96.30;;;;;;5005833;28;20467;-32
2022/03/07 09:22:35;;;;;;;19.48;11.15;;;0.10;95.50;;;;;;5005587;28;20088;-31
2022/03/07 09:25:02;;;;;;;14.30;9.23;;;0.20;96.60;;;;;;5005319;28;20034;-32
2022/03/07 09:27:28;;;;;;;21.75;11.35;;;0.30;95.50;;;;;;5003970;28;20099;-31
2022/03/07 09:29:53;;;;;;;20.15;11.73;;;0.30;94.00;;;;;;5006282;28;20430;-32
2022/03/07 09:32:20;;;;;;;20.23;12.00;;;0.30;93.60;;;;;;5005094;28;20045;-32
2022/03/07 09:34:46;;;;;;;24.10;11.80;;;0.20;93.60;;;;;;5004079;28;20068;-32
2022/03/07 09:37:12;;;;;;;14.63;9.00;;;0.40;94.70;;;;;;5003619;28;20426;-32
2022/03/07 09:39:37;;;;;;;18.15;11.43;;;0.40;95.00;;;;;;5007515;28;20088;-32
2022/03/07 09:42:03;;;;;;;22.33;11.82;;;0.60;94.80;;;;;;5005646;28;20049;-32
2022/03/07 09:44:29;;;;;;;19.35;11.48;;;0.40;93.10;;;;;;5004600;28;20119;-31
2022/03/07 09:46:57;;;;;;;19.88;12.15;;;0.30;93.40;;;;;;5006674;28;20021;-32
2022/03/07 09:49:22;;;;;;;21.02;12.77;;;0.40;94.50;;;;;;5006104;28;20026;-32
2022/03/07 09:51:48;;;;;;;17.58;11.55;;;0.40;95.50;;;;;;5004734;28;20041;-32
2022/03/07 09:54:14;;;;;;;22.48;12.82;;;0.40;92.50;;;;;;5005600;28;20644;-32
2022/03/07 09:56:39;;;;;;;18.45;11.43;;;0.40;92.80;;;;;;5008324;28;20033;-32
2022/03/07 09:59:07;;;;;;;22.02;12.77;;;0.60;93.50;;;;;;5008852;28;20029;-32
2022/03/07 10:01:32;;;;;;;21.67;12.57;;;0.90;93.50;;;;;;5008000;28;20042;-32
2022/03/07 10:04:10;;;;;;;22.88;13.55;;;0.90;92.10;;;;;;5004657;28;20057;-32
2022/03/07 10:06:36;;;;;;;32.75;13.43;;;1.00;92.00;;;;;;5003302;28;20037;-32
2022/03/07 10:09:03;;;;;;;19.58;12.73;;;1.10;91.80;;;;;;5006758;28;20029;-31
2022/03/07 10:11:30;;;;;;;20.55;13.00;;;1.50;91.20;;;;;;5009259;28;20057;-32
2022/03/07 10:14:02;;;;;;;22.35;13.00;;;1.50;92.50;;;;;;5003603;28;20034;-32
2022/03/07 10:16:43;;;;;;;20.73;11.63;;;1.50;92.10;;;;;;5006136;28;20030;-31
2022/03/07 10:19:11;;;;;;;25.73;13.90;;;1.30;86.10;;;;;;5008574;28;20084;-31
2022/03/07 10:21:48;;;;;;;24.27;16.65;;;1.00;87.20;;;;;;5007000;28;20075;-31
2022/03/07 10:24:14;;;;;;;20.15;13.77;;;1.00;86.10;;;;;;5007295;28;20558;-32
2022/03/07 10:26:40;;;;;;;21.85;13.48;;;0.80;91.40;;;;;;5008554;28;20122;-32
2022/03/07 10:29:06;;;;;;;22.73;13.57;;;1.10;90.60;;;;;;5007916;28;20118;-32
2022/03/07 10:31:32;;;;;;;26.10;16.40;;;1.20;90.50;;;;;;5005419;28;20540;-32
2022/03/07 10:34:03;;;;;;;19.73;12.18;;;1.20;84.00;;;;;;5008471;28;20112;-32
2022/03/07 10:36:31;;;;;;;20.55;12.80;;;1.00;88.90;;;;;;5008582;28;20079;-32
2022/03/07 10:38:57;;;;;;;25.15;13.98;;;1.00;85.30;;;;;;5001163;28;20061;-31
2022/03/07 10:41:52;;;;;;;22.35;14.25;;;0.80;88.10;;;;;;5006360;28;20069;-32
2022/03/07 10:44:30;;;;;;;20.85;12.80;;;1.00;90.70;;;;;;5000620;28;20042;-32
2022/03/07 10:47:13;;;;;;;22.27;13.75;;;1.00;87.40;;;;;;5006127;28;20116;-32
2022/03/07 10:49:48;;;;;;;24.65;13.48;;;0.80;80.70;;;;;;5002324;28;20065;-32
2022/03/07 10:52:14;;;;;;;21.70;13.95;;;0.60;86.60;;;;;;5004770;28;20044;-31
2022/03/07 10:54:39;;;;;;;23.75;13.10;;;0.50;85.90;;;;;;5005820;28;20022;-31
2022/03/07 10:57:08;;;;;;;18.70;11.75;;;0.60;84.80;;;;;;5004237;28;20506;-31
2022/03/07 10:59:35;;;;;;;;;;;0.60;86.00;;;;;;5008217;28;20033;-32
2022/03/07 11:02:13;;;;;;;20.05;12.18;;;0.80;85.60;;;;;;5007218;28;20398;-31
2022/03/07 11:04:44;;;;;;;21.58;13.52;;;0.80;85.20;;;;;;5009033;28;20403;-31
2022/03/07 11:07:10;;;;;;;20.88;13.52;;;0.80;83.80;;;;;;5010871;28;20029;-32
2022/03/07 11:09:40;;;;;;;27.63;13.73;;;0.80;83.80;;;;;;5005078;28;20049;-31
2022/03/07 11:12:10;;;;;;;19.67;12.30;;;1.00;83.10;;;;;;5005263;28;20037;-32
2022/03/07 11:14:38;;;;;;;24.65;14.18;;;1.30;87.90;;;;;;5006172;28;20025;-32
2022/03/07 11:17:06;;;;;;;39.78;13.55;;;1.30;76.60;;;;;;5007943;28;20052;-31
2022/03/07 11:19:32;;;;;;;27.05;14.27;;;1.20;76.80;;;;;;5004038;28;20037;-31
2022/03/07 11:21:58;;;;;;;18.77;12.27;;;1.10;80.10;;;;;;5003033;28;20159;-31
2022/03/07 11:24:26;;;;;;;25.85;13.05;;;1.00;76.90;;;;;;5006548;28;20026;-31
2022/03/07 11:26:54;;;;;;;22.10;12.77;;;1.00;81.80;;;;;;5008165;28;20165;-31
2022/03/07 11:29:32;;;;;;;22.25;13.00;;;1.00;78.90;;;;;;5008697;28;20018;-31
2022/03/07 11:32:07;;;;;;;21.30;12.17;;;1.00;77.60;;;;;;4996719;28;20038;-32
2022/03/07 11:34:33;;;;;;;19.20;12.85;;;0.90;73.90;;;;;;5005947;28;20107;-31
2022/03/07 11:36:59;;;;;;;20.75;13.85;;;0.90;76.10;;;;;;5004119;28;20379;-31
2022/03/07 11:39:31;;;;;;;24.17;14.18;;;0.90;77.40;;;;;;4997277;28;20022;-31
2022/03/07 11:42:08;;;;;;;19.05;10.85;;;0.90;72.10;;;;;;5001828;28;20394;-32
2022/03/07 11:44:34;;;;;;;19.23;12.55;;;0.90;71.60;;;;;;5007989;28;20022;-31
2022/03/07 11:47:07;;;;;;;20.30;12.88;;;0.90;74.00;;;;;;5004860;28;20087;-31
2022/03/07 11:49:34;;;;;;;21.02;12.45;;;1.00;78.10;;;;;;5008621;28;20065;-31
2022/03/07 11:52:03;;;;;;;21.73;13.23;;;1.00;74.10;;;;;;5011402;28;20068;-32
2022/03/07 11:54:28;;;;;;;18.88;11.27;;;1.00;72.10;;;;;;5010532;28;20040;-32
2022/03/07 11:57:09;;;;;;;19.85;12.55;;;0.90;73.10;;;;;;5006917;28;20038;-31
2022/03/07 11:59:36;;;;;;;22.17;13.73;;;1.00;76.30;;;;;;5010691;28;20109;-32
2022/03/07 12:02:02;;;;;;;22.20;12.68;;;1.00;76.10;;;;;;5005969;28;20403;-31
2022/03/07 12:04:45;;;;;;;24.52;15.52;;;1.00;79.50;;;;;;5010860;28;20033;-31
2022/03/07 12:07:11;;;;;;;19.42;10.23;;;1.00;74.90;;;;;;5009159;28;20057;-32
2022/03/07 12:09:39;;;;;;;16.38;10.90;;;0.90;77.80;;;;;;5011868;28;20808;-31
2022/03/07 12:12:24;;;;;;;18.33;11.15;;;1.00;79.20;;;;;;5007970;28;20116;-32
2022/03/07 12:14:50;;;;;;;15.60;9.52;;;1.10;71.10;;;;;;5009455;28;20462;-32
2022/03/07 12:17:22;;;;;;;18.20;11.35;;;1.10;74.00;;;;;;5005759;28;20046;-32
2022/03/07 12:19:56;;;;;;;20.90;11.52;;;1.10;69.40;;;;;;5011835;28;20030;-32
2022/03/07 12:22:25;;;;;;;17.20;11.35;;;1.10;77.90;;;;;;5004801;28;20040;-32
2022/03/07 12:24:53;;;;;;;18.77;10.25;;;1.20;71.60;;;;;;5007213;28;20034;-32
2022/03/07 12:27:18;;;;;;;16.95;10.00;;;1.00;68.80;;;;;;5009752;28;20041;-32
2022/03/07 12:29:44;;;;;;;21.33;11.93;;;0.90;73.60;;;;;;5011655;28;20034;-32
2022/03/07 12:32:11;;;;;;;21.55;11.30;;;0.90;71.90;;;;;;5009538;28;20388;-32
2022/03/07 12:34:39;;;;;;;20.33;11.57;;;1.00;69.20;;;;;;5010860;28;20360;-32
2022/03/07 12:37:13;;;;;;;20.02;10.02;;;1.00;71.00;;;;;;5008920;28;20109;-32